createdAt,value
2023-05-09T05:02:31.199Z,1.39
2023-05-09T05:05:17.945Z,1.27
2023-05-09T05:07:44.767Z,1.29
2023-05-09T05:10:11.544Z,1.37
2023-05-09T05:12:38.376Z,1.32
2023-05-09T05:15:06.961Z,1.35
2023-05-09T05:17:33.746Z,1.43
2023-05-09T05:20:00.572Z,1.45
2023-05-09T05:22:27.437Z,1.48
2023-05-09T05:24:54.206Z,1.78
2023-05-09T05:27:20.913Z,2.01
2023-05-09T05:29:47.573Z,2.00
2023-05-09T05:32:14.374Z,1.81
2023-05-09T05:34:41.123Z,1.86
2023-05-09T05:37:07.801Z,1.70
2023-05-09T05:39:34.539Z,1.70
2023-05-09T05:42:01.304Z,1.80
2023-05-09T05:44:28.052Z,1.69
2023-05-09T05:46:54.818Z,1.70
2023-05-09T05:49:21.593Z,1.77
2023-05-09T05:51:48.321Z,1.71
2023-05-09T05:54:15.134Z,1.86
2023-05-09T05:56:41.923Z,1.98
2023-05-09T05:59:09.538Z,1.73
2023-05-09T06:01:37.646Z,1.81
2023-05-09T06:04:06.603Z,1.73
2023-05-09T06:06:33.455Z,1.75
2023-05-09T06:09:00.259Z,1.89
2023-05-09T06:11:27.002Z,1.96
2023-05-09T06:13:53.797Z,1.79
2023-05-09T06:16:20.731Z,1.82
2023-05-09T06:18:47.970Z,2.34
2023-05-09T06:21:14.654Z,2.43
2023-05-09T06:23:56.980Z,2.42
2023-05-09T06:26:28.145Z,2.27
2023-05-09T06:28:54.877Z,2.90
2023-05-09T06:31:22.513Z,2.78
2023-05-09T06:33:50.519Z,2.79
2023-05-09T06:36:19.928Z,2.68
2023-05-09T06:38:46.702Z,2.55
2023-05-09T06:41:13.537Z,2.69
2023-05-09T06:43:40.232Z,2.81
2023-05-09T06:46:07.020Z,2.56
2023-05-09T06:48:33.851Z,2.64
2023-05-09T06:51:00.634Z,2.92
2023-05-09T06:53:27.394Z,2.69
2023-05-09T06:55:54.142Z,2.87
2023-05-09T06:58:20.851Z,2.61
2023-05-09T07:00:47.645Z,2.51
2023-05-09T07:03:14.331Z,2.62
2023-05-09T07:05:41.102Z,2.43
2023-05-09T07:08:07.877Z,2.73
2023-05-09T07:10:34.762Z,2.62
2023-05-09T07:13:01.690Z,2.70
2023-05-09T07:15:40.347Z,2.48
2023-05-09T07:18:09.347Z,2.49
2023-05-09T07:20:36.435Z,2.26
2023-05-09T07:23:04.134Z,2.24
2023-05-09T07:25:31.054Z,2.20
2023-05-09T07:27:58.060Z,2.34
2023-05-09T07:30:24.847Z,2.17
2023-05-09T07:32:51.659Z,2.07
2023-05-09T07:35:19.259Z,2.32
2023-05-09T07:37:46.066Z,2.33
2023-05-09T07:40:13.413Z,2.20
2023-05-09T07:42:40.382Z,2.18
2023-05-09T07:45:07.811Z,2.34
2023-05-09T07:47:34.713Z,2.31
2023-05-09T07:50:01.601Z,1.99
2023-05-09T07:52:28.418Z,2.04
2023-05-09T07:54:55.256Z,2.04
2023-05-09T07:57:22.030Z,1.86
2023-05-09T15:16:55.748Z,1.58
2023-05-09T15:19:22.598Z,1.55
2023-05-09T15:21:49.604Z,1.66
2023-05-09T15:24:16.454Z,1.77
2023-05-09T15:26:43.242Z,1.71
2023-05-09T15:29:10.071Z,1.53
2023-05-09T15:31:36.810Z,1.65
2023-05-09T15:34:03.661Z,1.52
2023-05-09T15:36:30.571Z,1.58
2023-05-09T15:38:57.287Z,1.56
2023-05-09T15:41:24.101Z,1.61
2023-05-09T15:43:51.490Z,1.77
2023-05-09T15:46:18.278Z,1.77
2023-05-09T15:48:45.130Z,1.95
2023-05-09T15:51:11.871Z,1.62
2023-05-09T15:53:38.615Z,2.22
2023-05-09T15:56:05.576Z,2.41
2023-05-09T15:58:32.356Z,2.52
2023-05-09T16:00:59.079Z,2.47
2023-05-09T16:03:25.986Z,2.51
2023-05-09T16:05:52.868Z,2.29
2023-05-09T16:08:19.605Z,2.54
2023-05-09T16:10:46.555Z,2.71
2023-05-09T16:13:13.413Z,2.70
2023-05-09T16:15:40.222Z,2.48
2023-05-09T16:18:06.991Z,2.21
2023-05-09T16:20:33.855Z,2.51
2023-05-09T16:23:00.670Z,2.67
2023-05-09T16:25:27.410Z,2.55
2023-05-09T16:27:54.119Z,2.55
2023-05-09T16:30:20.932Z,2.65
2023-05-09T16:32:47.731Z,2.86
2023-05-09T16:35:14.709Z,2.68
2023-05-09T16:37:41.379Z,2.78
2023-05-09T16:40:08.769Z,2.50
2023-05-09T16:42:35.585Z,2.58
2023-05-09T16:45:02.436Z,2.86
2023-05-09T16:47:29.294Z,2.51
2023-05-09T16:49:56.074Z,2.70
2023-05-09T16:52:22.845Z,2.39
2023-05-09T16:54:52.090Z,2.51
2023-05-09T16:57:18.793Z,2.74
2023-05-09T16:59:45.474Z,2.45
2023-05-09T17:02:12.506Z,2.23
2023-05-09T17:04:39.222Z,2.30
2023-05-09T17:07:06.058Z,2.24
2023-05-09T17:09:32.849Z,2.32
2023-05-09T17:11:59.606Z,3.85
2023-05-09T17:14:26.436Z,34.49
2023-05-09T17:16:53.708Z,78.95
2023-05-09T17:19:20.579Z,244.09
2023-05-09T17:21:47.303Z,274.94
2023-05-09T17:24:14.120Z,248.28
2023-05-09T17:26:40.903Z,185.35
2023-05-09T17:29:07.882Z,171.84
2023-05-09T17:31:34.746Z,153.83
2023-05-09T17:34:01.590Z,145.49
2023-05-09T17:36:28.370Z,142.80
2023-05-09T17:38:55.170Z,162.40
2023-05-09T17:41:25.017Z,149.81
2023-05-09T17:43:51.827Z,110.26
2023-05-09T17:46:18.650Z,93.85
2023-05-09T17:48:45.451Z,71.47
2023-05-09T17:51:12.183Z,60.31
2023-05-09T17:53:38.963Z,68.67
2023-05-09T17:56:05.736Z,76.12
2023-05-09T17:58:32.581Z,66.16
2023-05-09T18:00:59.391Z,52.12
2023-05-09T18:03:27.248Z,45.99
2023-05-09T18:05:54.079Z,49.34
2023-05-09T18:08:20.785Z,65.30
2023-05-09T18:10:47.581Z,66.97
2023-05-09T18:13:14.369Z,68.33
2023-05-09T18:15:41.293Z,63.46
2023-05-09T18:18:08.248Z,63.88
2023-05-09T18:20:35.054Z,48.56
2023-05-09T18:23:01.815Z,48.36
2023-05-09T18:25:28.693Z,46.97
2023-05-09T18:27:55.820Z,32.31
2023-05-09T18:30:22.631Z,29.77
2023-05-09T18:32:49.383Z,26.04
2023-05-09T18:35:16.169Z,26.07
2023-05-09T18:37:42.945Z,24.11
2023-05-09T18:40:09.719Z,21.76
2023-05-09T18:42:36.563Z,20.39
2023-05-09T18:45:03.394Z,18.08
2023-05-09T18:47:30.151Z,18.50
2023-05-09T18:49:56.940Z,19.85
2023-05-09T18:52:24.315Z,24.05
2023-05-09T18:54:51.149Z,25.90
2023-05-09T18:57:17.865Z,28.49
2023-05-09T18:59:45.602Z,29.08
2023-05-09T19:02:12.618Z,28.48
2023-05-09T19:04:39.379Z,27.77
2023-05-09T19:07:06.226Z,26.73
2023-05-09T19:09:33.078Z,26.44
2023-05-09T19:11:59.773Z,24.16
2023-05-09T19:14:26.500Z,20.59
2023-05-09T19:16:53.689Z,24.37
2023-05-09T19:19:20.420Z,24.04
2023-05-09T19:21:49.048Z,23.27
2023-05-09T19:24:16.843Z,23.74
2023-05-09T19:26:43.622Z,23.00
2023-05-09T19:29:10.496Z,21.99
2023-05-09T19:31:37.413Z,20.64
2023-05-09T19:34:04.133Z,21.19
2023-05-09T19:36:30.989Z,19.20
2023-05-09T19:38:57.917Z,19.11
2023-05-09T19:41:24.642Z,18.34
2023-05-09T19:43:51.564Z,18.09
2023-05-09T19:46:18.406Z,18.19
2023-05-09T19:48:45.284Z,15.64
2023-05-09T19:51:12.006Z,13.98
2023-05-09T19:53:39.166Z,9.92
2023-05-09T19:56:05.873Z,9.36
2023-05-09T19:58:32.677Z,13.17
2023-05-09T20:00:59.645Z,15.03
2023-05-09T20:03:26.620Z,13.34
2023-05-09T20:08:37.817Z,10.59
2023-05-09T20:24:56.657Z,11.02
2023-05-09T22:25:05.740Z,4.11
